Time;durP1;ratioP1;P1;durP2;ratioP2;P2;SDS_P1;SDS_P2;PMS_P1;PMS_P2;Temp;Humidity;BMP_temperature;BMP_pressure;BME280_temperature;BME280_humidity;BME280_pressure;Samples;Min_cycle;Max_cycle;Signal;HPM_P1;HPM_P2
2021/05/03 00:01:29;;;;;;;16.35;10.90;;;15.50;90.20;;;;;;5016067;28;20025;-63
2021/05/03 00:03:55;;;;;;;18.13;11.13;;;15.50;90.20;;;;;;5020985;28;20029;-63
2021/05/03 00:06:20;;;;;;;14.55;10.00;;;15.50;90.30;;;;;;5016350;28;20026;-62
2021/05/03 00:08:46;;;;;;;19.17;10.90;;;15.50;90.30;;;;;;5019230;28;20041;-63
2021/05/03 00:11:12;;;;;;;19.77;11.55;;;15.40;90.20;;;;;;5018867;28;20026;-63
2021/05/03 00:13:37;;;;;;;16.88;10.65;;;15.40;90.20;;;;;;5016445;28;20025;-63
2021/05/03 00:16:04;;;;;;;14.77;10.50;;;15.40;90.40;;;;;;5017105;28;20065;-62
2021/05/03 00:18:30;;;;;;;13.07;9.60;;;15.40;90.40;;;;;;5023952;28;20061;-63
2021/05/03 00:20:56;;;;;;;16.88;9.50;;;15.40;90.30;;;;;;5017724;28;21430;-62
2021/05/03 00:23:21;;;;;;;17.38;10.75;;;15.40;90.30;;;;;;5018371;28;20048;-63
2021/05/03 00:25:47;;;;;;;18.13;10.82;;;15.30;90.30;;;;;;5023595;28;20062;-62
2021/05/03 00:28:13;;;;;;;16.33;10.23;;;15.30;90.40;;;;;;5020568;28;20025;-63
2021/05/03 00:30:39;;;;;;;16.83;10.50;;;15.30;90.50;;;;;;5015849;28;20032;-62
2021/05/03 00:33:05;;;;;;;17.17;10.35;;;15.30;90.40;;;;;;5014363;28;20538;-63
2021/05/03 00:35:34;;;;;;;13.88;9.13;;;15.30;90.30;;;;;;5014931;28;20018;-63
2021/05/03 00:38:00;;;;;;;15.95;10.85;;;15.30;90.30;;;;;;5017255;28;20021;-62
2021/05/03 00:40:26;;;;;;;15.82;10.63;;;15.30;90.50;;;;;;5016477;28;20425;-63
2021/05/03 00:42:52;;;;;;;17.73;10.63;;;15.30;90.80;;;;;;5015923;28;20034;-63
2021/05/03 00:45:19;;;;;;;17.08;10.93;;;15.20;90.40;;;;;;5022480;28;21386;-63
2021/05/03 00:47:46;;;;;;;17.40;11.77;;;15.20;90.50;;;;;;5016965;28;20037;-63
2021/05/03 00:50:14;;;;;;;22.20;10.90;;;15.20;90.60;;;;;;5014715;28;20030;-62
2021/05/03 00:52:41;;;;;;;17.05;10.70;;;15.30;90.60;;;;;;5014439;28;20398;-63
2021/05/03 00:55:07;;;;;;;15.73;11.50;;;15.20;90.60;;;;;;4996794;28;20550;-62
2021/05/03 00:57:34;;;;;;;16.05;11.23;;;15.30;90.60;;;;;;5018780;28;20021;-63
2021/05/03 01:00:00;;;;;;;15.00;10.27;;;15.30;90.50;;;;;;5014323;28;20030;-63
2021/05/03 01:02:26;;;;;;;22.95;12.13;;;15.30;90.50;;;;;;5019563;28;20022;-63
2021/05/03 01:04:52;;;;;;;15.60;10.40;;;15.20;90.40;;;;;;5014159;28;20029;-62
2021/05/03 01:07:17;;;;;;;18.27;12.40;;;15.20;90.40;;;;;;5014754;28;20022;-62
2021/05/03 01:09:43;;;;;;;17.23;11.20;;;15.20;90.50;;;;;;5014174;28;20072;-62
2021/05/03 01:12:09;;;;;;;20.60;12.23;;;15.20;90.70;;;;;;5014247;28;20033;-63
2021/05/03 01:14:35;;;;;;;17.10;11.93;;;15.20;90.70;;;;;;5013925;28;20477;-63
2021/05/03 01:17:02;;;;;;;16.17;11.63;;;15.30;90.70;;;;;;5016515;28;20060;-63
2021/05/03 01:19:29;;;;;;;18.05;11.10;;;15.30;90.70;;;;;;5019615;28;20034;-63
2021/05/03 01:21:55;;;;;;;20.02;11.52;;;15.30;90.70;;;;;;5014043;28;20021;-62
2021/05/03 01:24:21;;;;;;;20.23;11.60;;;15.30;90.70;;;;;;5017569;28;20030;-63
2021/05/03 01:26:47;;;;;;;18.88;11.75;;;15.30;90.70;;;;;;5015055;28;20036;-63
2021/05/03 01:29:14;;;;;;;18.83;12.52;;;15.30;90.60;;;;;;5017396;28;20029;-63
2021/05/03 01:31:40;;;;;;;16.08;11.00;;;15.30;90.60;;;;;;5017173;28;20034;-63
2021/05/03 01:34:08;;;;;;;17.35;11.40;;;15.30;90.60;;;;;;5014466;28;20496;-63
2021/05/03 01:36:38;;;;;;;18.45;11.40;;;15.40;90.70;;;;;;5016646;28;20025;-63
2021/05/03 01:39:11;;;;;;;21.20;11.13;;;15.40;90.70;;;;;;5022950;28;20034;-62
2021/05/03 01:41:37;;;;;;;17.75;12.23;;;15.30;90.60;;;;;;5013809;28;20030;-63
2021/05/03 01:44:08;;;;;;;14.35;11.10;;;15.30;90.50;;;;;;5022479;28;20032;-62
2021/05/03 01:46:35;;;;;;;16.20;9.93;;;15.30;90.70;;;;;;5014207;28;20433;-62
2021/05/03 01:49:02;;;;;;;19.45;11.20;;;15.30;90.50;;;;;;5014579;28;20069;-63
2021/05/03 01:51:30;;;;;;;19.95;11.45;;;15.30;90.70;;;;;;5015526;28;20034;-62
2021/05/03 01:53:57;;;;;;;16.35;12.32;;;15.30;90.70;;;;;;5015621;28;20044;-62
2021/05/03 01:56:26;;;;;;;17.20;12.20;;;15.30;90.70;;;;;;5017355;28;20030;-63
2021/05/03 01:58:52;;;;;;;14.77;10.95;;;15.30;90.70;;;;;;5017870;28;20026;-63
2021/05/03 02:01:19;;;;;;;19.08;11.07;;;15.30;90.70;;;;;;5015854;28;20024;-63
2021/05/03 02:03:45;;;;;;;22.20;11.98;;;15.30;90.70;;;;;;5016138;28;20397;-63
2021/05/03 02:06:13;;;;;;;18.05;11.38;;;15.30;90.70;;;;;;5013391;28;20030;-63
2021/05/03 02:08:40;;;;;;;19.42;12.32;;;15.20;90.80;;;;;;5013661;28;20034;-63
2021/05/03 02:11:06;;;;;;;17.50;11.10;;;15.20;90.80;;;;;;5013852;28;20456;-63
2021/05/03 02:13:33;;;;;;;17.35;11.55;;;15.20;90.80;;;;;;5016052;28;20406;-62
2021/05/03 02:15:59;;;;;;;18.35;11.82;;;15.30;90.80;;;;;;5013573;28;20041;-63
2021/05/03 02:18:26;;;;;;;16.75;11.05;;;15.30;90.70;;;;;;5016784;28;20168;-63
2021/05/03 02:20:51;;;;;;;18.58;11.60;;;15.30;91.00;;;;;;5013175;28;20068;-63
2021/05/03 02:23:17;;;;;;;17.60;11.57;;;15.20;90.70;;;;;;5013879;28;20445;-62
2021/05/03 02:25:43;;;;;;;15.13;10.38;;;15.20;90.70;;;;;;5016780;28;20026;-63
2021/05/03 02:28:09;;;;;;;18.40;11.45;;;15.20;90.70;;;;;;5015242;28;20057;-63
2021/05/03 02:30:35;;;;;;;18.23;11.90;;;15.20;90.80;;;;;;5013802;28;20050;-63
2021/05/03 02:33:01;;;;;;;18.38;11.95;;;15.20;90.80;;;;;;5015580;28;20045;-63
2021/05/03 02:35:33;;;;;;;19.48;12.20;;;15.20;90.90;;;;;;5016113;28;20030;-63
2021/05/03 02:38:00;;;;;;;20.92;12.35;;;15.20;90.90;;;;;;5014483;28;20086;-63
2021/05/03 02:40:27;;;;;;;17.90;12.23;;;15.20;91.20;;;;;;5012751;28;20544;-63
2021/05/03 02:42:55;;;;;;;21.52;13.20;;;15.20;90.90;;;;;;5015113;28;20087;-63
2021/05/03 02:45:22;;;;;;;18.05;11.77;;;15.20;90.90;;;;;;5017235;28;20120;-62
2021/05/03 02:47:48;;;;;;;20.45;11.10;;;15.20;91.00;;;;;;5016881;28;20033;-63
2021/05/03 02:50:15;;;;;;;18.40;11.73;;;15.20;91.00;;;;;;5018373;28;20022;-63
2021/05/03 02:52:41;;;;;;;16.70;11.48;;;15.20;91.00;;;;;;5022960;28;20085;-63
2021/05/03 02:55:11;;;;;;;20.05;12.75;;;15.30;91.00;;;;;;5016757;28;20034;-63
2021/05/03 02:57:41;;;;;;;18.98;12.25;;;15.30;91.00;;;;;;5019466;28;20033;-62
2021/05/03 03:00:09;;;;;;;20.48;12.48;;;15.30;90.90;;;;;;5021108;28;20112;-62
2021/05/03 03:02:35;;;;;;;17.60;11.60;;;15.40;91.00;;;;;;5021434;28;20041;-62
2021/05/03 03:05:01;;;;;;;16.73;11.02;;;15.40;90.90;;;;;;5017388;28;20014;-62
2021/05/03 03:07:27;;;;;;;15.88;10.48;;;15.40;90.90;;;;;;5016991;28;20033;-63
2021/05/03 03:09:52;;;;;;;14.27;11.55;;;15.40;90.90;;;;;;5021063;28;20084;-63
2021/05/03 03:12:18;;;;;;;20.50;11.43;;;15.50;90.90;;;;;;5019986;28;20542;-63
2021/05/03 03:14:44;;;;;;;16.63;12.50;;;15.40;90.90;;;;;;5021759;28;20026;-63
2021/05/03 03:17:10;;;;;;;14.80;10.43;;;15.50;91.00;;;;;;5016865;28;20080;-63
2021/05/03 03:19:39;;;;;;;17.02;11.57;;;15.50;90.90;;;;;;5016329;28;20026;-63
2021/05/03 03:22:06;;;;;;;15.02;10.93;;;15.60;91.00;;;;;;5021679;28;20049;-63
2021/05/03 03:24:32;;;;;;;16.80;11.65;;;15.60;91.00;;;;;;5016158;28;20030;-63
2021/05/03 03:26:58;;;;;;;14.27;10.10;;;15.70;91.10;;;;;;5016063;28;20577;-63
2021/05/03 03:29:24;;;;;;;17.40;11.27;;;15.70;91.10;;;;;;5020648;28;20431;-62
2021/05/03 03:31:49;;;;;;;14.77;11.15;;;15.80;91.10;;;;;;5025057;28;20041;-63
2021/05/03 03:34:15;;;;;;;16.65;10.65;;;15.90;91.10;;;;;;5018687;28;20045;-63
2021/05/03 03:36:41;;;;;;;13.52;9.55;;;16.00;91.00;;;;;;5015930;28;20026;-63
2021/05/03 03:39:07;;;;;;;15.75;10.88;;;16.10;90.80;;;;;;5024819;28;20384;-62
2021/05/03 03:41:34;;;;;;;16.00;11.45;;;16.10;90.80;;;;;;5022999;28;20466;-63
2021/05/03 03:44:00;;;;;;;18.50;11.40;;;16.20;90.70;;;;;;5018452;28;20033;-63
2021/05/03 03:46:26;;;;;;;15.20;11.82;;;16.20;90.70;;;;;;5018510;28;20029;-62
2021/05/03 03:48:51;;;;;;;13.50;9.73;;;16.30;90.60;;;;;;5018443;28;20076;-63
2021/05/03 03:51:17;;;;;;;16.77;10.73;;;16.40;90.70;;;;;;5014147;28;20037;-63
2021/05/03 03:53:43;;;;;;;12.95;9.73;;;16.40;90.70;;;;;;5014353;28;20055;-62
2021/05/03 03:56:11;;;;;;;17.17;10.45;;;16.50;90.60;;;;;;5015271;28;20030;-62
2021/05/03 03:58:37;;;;;;;13.50;10.02;;;16.60;90.70;;;;;;5019352;28;20497;-62
2021/05/03 04:01:03;;;;;;;14.27;10.50;;;16.70;90.60;;;;;;5016133;28;20033;-62
2021/05/03 04:03:29;;;;;;;20.80;9.82;;;16.80;90.70;;;;;;5016601;28;20053;-62
2021/05/03 04:24:38;;;;;;;8.00;5.50;;;19.60;84.00;;;;;;5014619;28;20022;-63
2021/05/03 04:27:03;;;;;;;9.05;5.78;;;19.70;82.30;;;;;;5019824;28;20450;-62
2021/05/03 04:29:29;;;;;;;8.18;5.07;;;19.80;81.80;;;;;;5016195;28;20022;-62
2021/05/03 04:31:54;;;;;;;7.43;5.47;;;20.00;80.80;;;;;;5015116;28;20080;-62
2021/05/03 04:34:20;;;;;;;9.02;5.47;;;20.30;80.10;;;;;;5014151;28;20065;-63
2021/05/03 04:36:46;;;;;;;6.95;5.20;;;20.50;77.90;;;;;;5017428;28;20446;-63
2021/05/03 04:39:12;;;;;;;6.15;4.68;;;20.60;76.70;;;;;;5014219;28;20120;-63
2021/05/03 04:41:37;;;;;;;6.00;4.72;;;20.70;76.20;;;;;;5014341;28;20043;-63
2021/05/03 04:44:03;;;;;;;6.30;4.20;;;20.80;75.40;;;;;;5016149;28;20025;-63
2021/05/03 04:46:29;;;;;;;6.85;5.13;;;20.90;75.10;;;;;;5014586;28;20079;-63
2021/05/03 04:48:55;;;;;;;6.35;4.65;;;21.00;74.50;;;;;;5013902;28;20505;-63
2021/05/03 04:51:20;;;;;;;5.10;4.07;;;21.20;74.10;;;;;;5021578;28;20466;-63
2021/05/03 04:53:46;;;;;;;7.97;4.45;;;21.20;72.20;;;;;;5015410;28;20545;-63
2021/05/03 04:56:12;;;;;;;5.05;4.07;;;21.20;71.20;;;;;;5021733;28;21973;-63
2021/05/03 04:58:37;;;;;;;5.47;4.00;;;21.20;70.90;;;;;;5013528;28;20037;-63
2021/05/03 05:01:03;;;;;;;4.25;3.60;;;21.20;70.60;;;;;;5013920;28;20026;-63
2021/05/03 05:03:28;;;;;;;5.47;4.00;;;21.20;70.20;;;;;;5017599;28;20033;-63
2021/05/03 05:05:54;;;;;;;6.38;4.00;;;21.30;68.50;;;;;;5019069;28;20025;-63
2021/05/03 05:08:22;;;;;;;4.85;4.07;;;21.30;68.20;;;;;;5015051;28;20092;-63
2021/05/03 05:10:47;;;;;;;4.75;3.55;;;21.30;67.00;;;;;;5014051;28;20461;-63
2021/05/03 05:13:13;;;;;;;4.60;3.75;;;21.20;66.60;;;;;;5013258;28;20025;-63
2021/05/03 05:15:39;;;;;;;4.95;3.70;;;20.90;66.50;;;;;;5020563;28;20022;-63
2021/05/03 05:18:07;;;;;;;4.32;3.92;;;20.70;67.20;;;;;;5013944;28;21366;-63
2021/05/03 05:20:32;;;;;;;6.13;4.25;;;20.60;67.40;;;;;;5020323;28;20038;-63
2021/05/03 05:22:58;;;;;;;4.93;3.72;;;20.60;67.40;;;;;;5018604;28;20029;-63
2021/05/03 05:25:24;;;;;;;4.82;3.80;;;20.40;67.10;;;;;;5015824;28;20029;-63
2021/05/03 05:27:50;;;;;;;5.78;3.80;;;20.20;66.70;;;;;;5014030;28;20113;-63
2021/05/03 05:30:16;;;;;;;6.63;3.80;;;20.00;66.90;;;;;;4996075;28;20545;-63
2021/05/03 05:32:42;;;;;;;6.40;3.80;;;19.70;67.30;;;;;;5015193;28;20033;-63
2021/05/03 05:35:11;;;;;;;4.40;3.92;;;19.60;67.70;;;;;;5013868;28;20029;-63
2021/05/03 05:37:36;;;;;;;5.28;3.63;;;19.50;68.00;;;;;;5017763;28;20080;-63
2021/05/03 05:40:03;;;;;;;6.07;3.60;;;19.40;68.20;;;;;;5013993;28;20521;-63
2021/05/03 05:42:29;;;;;;;4.75;3.88;;;19.30;68.20;;;;;;5020448;28;20426;-63
2021/05/03 05:44:55;;;;;;;4.68;3.92;;;19.20;68.20;;;;;;5015583;28;20026;-63
2021/05/03 05:47:20;;;;;;;4.20;3.38;;;19.10;68.40;;;;;;5013430;28;20113;-63
2021/05/03 05:49:46;;;;;;;4.70;3.65;;;19.00;68.40;;;;;;5012773;28;20033;-63
2021/05/03 05:52:12;;;;;;;5.07;3.67;;;19.00;68.60;;;;;;5017211;28;20049;-63
2021/05/03 05:54:37;;;;;;;4.70;3.30;;;18.90;68.20;;;;;;5016837;28;20517;-63
2021/05/03 05:57:03;;;;;;;3.75;3.33;;;18.90;68.10;;;;;;5013414;28;20049;-63
2021/05/03 05:59:29;;;;;;;5.60;3.78;;;18.70;68.30;;;;;;5013311;28;20122;-63
2021/05/03 06:01:54;;;;;;;4.10;3.45;;;18.60;68.20;;;;;;5013401;28;20038;-63
2021/05/03 06:04:20;;;;;;;5.80;3.58;;;18.50;68.30;;;;;;5015590;28;21453;-63
2021/05/03 06:06:46;;;;;;;6.45;4.15;;;18.40;68.10;;;;;;5013393;28;20049;-63
2021/05/03 06:09:12;;;;;;;5.47;4.18;;;18.30;68.00;;;;;;5016775;28;20026;-63
2021/05/03 06:11:38;;;;;;;4.78;3.90;;;18.10;68.60;;;;;;5013237;28;20041;-63
2021/05/03 06:14:04;;;;;;;4.97;3.88;;;18.00;69.00;;;;;;5013790;28;20575;-63
2021/05/03 06:16:30;;;;;;;4.85;3.85;;;17.90;69.30;;;;;;5013421;28;20034;-63
2021/05/03 06:18:55;;;;;;;4.28;3.75;;;17.80;69.60;;;;;;5021136;28;20026;-63
2021/05/03 06:21:21;;;;;;;4.85;3.90;;;17.70;69.80;;;;;;5017443;28;20048;-63
2021/05/03 06:23:47;;;;;;;5.80;4.25;;;17.70;70.00;;;;;;5016791;28;20032;-63
2021/05/03 06:26:13;;;;;;;4.22;3.70;;;17.60;70.70;;;;;;5018049;28;20021;-63
2021/05/03 06:28:39;;;;;;;4.40;3.83;;;17.50;70.70;;;;;;5024550;28;20116;-63
2021/05/03 06:31:05;;;;;;;4.57;3.97;;;17.40;71.00;;;;;;5018897;28;20577;-63
2021/05/03 06:33:31;;;;;;;6.70;4.00;;;17.40;71.90;;;;;;5016842;28;20048;-63
2021/05/03 06:35:57;;;;;;;6.75;4.38;;;17.30;72.30;;;;;;5016134;28;20513;-63
2021/05/03 06:38:22;;;;;;;6.88;4.10;;;17.30;72.50;;;;;;5020191;28;20060;-63
2021/05/03 06:40:49;;;;;;;5.80;5.10;;;17.30;72.60;;;;;;5017353;28;20393;-63
2021/05/03 06:43:15;;;;;;;5.28;4.30;;;17.30;72.70;;;;;;5016357;28;20029;-63
2021/05/03 06:45:41;;;;;;;4.68;3.67;;;17.30;73.20;;;;;;5016746;28;20026;-63
2021/05/03 06:48:09;;;;;;;4.05;3.30;;;17.30;73.00;;;;;;5021520;28;20033;-63
2021/05/03 06:50:37;;;;;;;5.57;3.95;;;17.30;72.70;;;;;;5016345;28;20033;-63
2021/05/03 06:53:02;;;;;;;6.10;4.53;;;17.30;72.80;;;;;;5015987;28;20501;-63
2021/05/03 06:55:28;;;;;;;4.80;3.83;;;17.30;72.80;;;;;;5017304;28;20042;-63
2021/05/03 06:57:54;;;;;;;5.15;4.25;;;17.30;73.10;;;;;;5016368;28;20042;-62
2021/05/03 07:00:21;;;;;;;4.45;3.83;;;17.30;73.30;;;;;;5021938;28;20442;-63
2021/05/03 07:02:46;;;;;;;4.63;3.60;;;17.30;72.70;;;;;;5025271;28;20100;-63
2021/05/03 07:05:12;;;;;;;5.13;3.83;;;17.30;72.90;;;;;;5021588;28;20120;-63
2021/05/03 07:07:39;;;;;;;6.85;4.10;;;17.40;72.10;;;;;;5022816;28;20470;-63
2021/05/03 07:10:06;;;;;;;4.10;3.67;;;17.40;71.90;;;;;;5024128;28;20046;-63
2021/05/03 07:12:35;;;;;;;4.13;3.50;;;17.40;71.10;;;;;;5016823;28;20033;-63
2021/05/03 07:15:02;;;;;;;4.32;3.50;;;17.50;70.80;;;;;;5016139;28;20889;-63
2021/05/03 07:17:27;;;;;;;3.38;2.78;;;17.50;71.20;;;;;;5018701;28;20170;-63
2021/05/03 07:19:53;;;;;;;3.90;3.50;;;17.60;69.70;;;;;;5018724;28;20025;-63
2021/05/03 07:22:22;;;;;;;3.33;2.92;;;17.60;68.40;;;;;;5023459;28;20030;-63
2021/05/03 07:24:48;;;;;;;6.65;3.00;;;17.60;68.20;;;;;;5017428;28;20025;-63
2021/05/03 07:27:13;;;;;;;3.45;2.80;;;17.60;67.90;;;;;;5023082;28;20079;-63
2021/05/03 07:29:39;;;;;;;2.70;2.50;;;17.70;67.80;;;;;;5016291;28;20026;-63
2021/05/03 07:32:05;;;;;;;2.80;2.50;;;17.70;67.20;;;;;;5016777;28;20029;-63
2021/05/03 07:34:31;;;;;;;3.38;2.53;;;17.80;67.40;;;;;;5015750;28;20041;-63
2021/05/03 07:36:57;;;;;;;2.70;2.45;;;17.90;67.50;;;;;;5014634;28;20033;-63
2021/05/03 07:39:23;;;;;;;3.80;3.20;;;18.00;67.00;;;;;;5015962;28;20409;-63
2021/05/03 07:41:49;;;;;;;4.00;2.63;;;18.00;66.60;;;;;;5016561;28;20030;-63
2021/05/03 07:44:14;;;;;;;2.97;2.72;;;18.00;66.60;;;;;;5015042;28;20139;-63
2021/05/03 07:46:40;;;;;;;3.10;2.60;;;18.10;66.50;;;;;;5020976;28;20037;-63
2021/05/03 07:49:06;;;;;;;2.85;2.60;;;18.10;66.10;;;;;;5016225;28;20037;-63
2021/05/03 07:51:33;;;;;;;4.43;2.50;;;18.20;65.50;;;;;;5017137;28;20113;-63
2021/05/03 07:54:00;;;;;;;2.30;2.10;;;18.20;65.00;;;;;;5016474;28;20038;-63
2021/05/03 07:56:28;;;;;;;3.25;2.50;;;18.20;64.50;;;;;;5025309;28;20026;-63
2021/05/03 07:58:54;;;;;;;3.25;2.55;;;18.30;64.70;;;;;;5022409;28;20041;-63
2021/05/03 08:01:20;;;;;;;2.95;2.75;;;18.30;64.50;;;;;;5016232;28;20022;-63
2021/05/03 08:03:45;;;;;;;3.15;2.85;;;18.30;64.30;;;;;;5019714;28;20064;-63
2021/05/03 08:06:13;;;;;;;3.88;2.60;;;18.40;64.00;;;;;;5020338;28;20052;-63
2021/05/03 08:08:43;;;;;;;2.58;2.38;;;18.40;63.70;;;;;;5018683;28;20072;-63
2021/05/03 08:11:10;;;;;;;3.03;2.27;;;18.40;63.80;;;;;;5016789;28;20401;-63
2021/05/03 08:13:36;;;;;;;2.85;2.55;;;18.30;63.80;;;;;;5017677;28;20072;-63
2021/05/03 08:16:06;;;;;;;3.45;2.90;;;18.20;63.90;;;;;;5021362;28;20502;-62
2021/05/03 08:18:32;;;;;;;3.10;2.80;;;18.10;64.20;;;;;;5013704;28;20022;-63
2021/05/03 08:20:57;;;;;;;2.70;2.50;;;18.00;64.50;;;;;;5013116;28;20084;-63
2021/05/03 08:23:24;;;;;;;3.03;2.70;;;18.00;64.60;;;;;;5017667;28;20040;-63
2021/05/03 08:25:53;;;;;;;2.70;2.50;;;17.90;64.60;;;;;;5020151;28;20028;-63
2021/05/03 08:28:20;;;;;;;2.60;2.40;;;17.90;64.70;;;;;;5015095;28;20033;-63
2021/05/03 08:30:47;;;;;;;3.63;2.50;;;17.90;64.70;;;;;;5022970;28;20072;-63
2021/05/03 08:33:13;;;;;;;3.17;2.55;;;17.90;64.60;;;;;;5015661;28;20042;-62
2021/05/03 08:35:39;;;;;;;5.20;2.33;;;17.90;64.50;;;;;;5015007;28;20105;-63
2021/05/03 08:38:05;;;;;;;2.80;2.30;;;17.90;64.40;;;;;;5016154;28;20145;-63
2021/05/03 08:40:33;;;;;;;2.60;2.40;;;17.90;65.10;;;;;;5014073;28;20040;-63
2021/05/03 08:43:03;;;;;;;2.80;2.58;;;18.00;64.50;;;;;;5014154;28;20026;-63
2021/05/03 08:45:31;;;;;;;2.15;1.98;;;17.90;64.30;;;;;;5017468;28;20103;-63
2021/05/03 08:48:11;;;;;;;2.70;2.45;;;18.00;64.00;;;;;;5016720;28;20196;-63
2021/05/03 08:53:36;;;;;;;3.05;2.10;;;18.10;63.40;;;;;;5014042;28;20637;-63
2021/05/03 08:56:02;;;;;;;2.67;2.08;;;18.20;62.60;;;;;;5016415;28;20395;-63
2021/05/03 08:58:28;;;;;;;1.63;1.52;;;18.30;61.50;;;;;;5014572;28;20466;-63
2021/05/03 09:00:54;;;;;;;2.60;1.92;;;18.30;60.60;;;;;;5014627;28;20029;-63
2021/05/03 09:03:22;;;;;;;2.53;2.08;;;18.40;59.90;;;;;;5014050;28;20041;-63
2021/05/03 09:05:48;;;;;;;2.22;2.03;;;18.30;59.80;;;;;;5014441;28;20107;-63
2021/05/03 09:08:27;;;;;;;2.10;2.00;;;18.30;59.90;;;;;;5015284;28;20049;-63
2021/05/03 09:10:55;;;;;;;2.25;2.05;;;18.30;59.60;;;;;;5017491;28;20205;-63
2021/05/03 09:13:37;;;;;;;3.10;2.25;;;18.20;59.70;;;;;;5017055;28;20025;-63
2021/05/03 09:16:12;;;;;;;2.50;2.30;;;18.20;60.00;;;;;;5014464;28;20478;-63
2021/05/03 09:18:40;;;;;;;2.45;2.25;;;18.20;60.40;;;;;;5018291;28;20121;-63
2021/05/03 09:21:15;;;;;;;3.05;2.22;;;18.10;60.30;;;;;;5016450;28;20092;-63
2021/05/03 09:24:06;;;;;;;3.13;1.90;;;18.10;60.10;;;;;;5014895;28;20032;-63
2021/05/03 09:26:41;;;;;;;2.97;2.28;;;18.10;59.70;;;;;;5018726;28;20116;-63
2021/05/03 09:29:39;;;;;;;2.20;2.00;;;18.20;60.20;;;;;;5023164;28;20045;-63
2021/05/03 09:32:12;;;;;;;2.80;2.13;;;18.10;59.60;;;;;;5023638;28;20128;-63
2021/05/03 09:34:43;;;;;;;2.28;2.08;;;18.10;59.90;;;;;;5015372;28;20045;-63
2021/05/03 09:37:29;;;;;;;2.38;2.05;;;18.10;59.90;;;;;;5015122;28;20105;-63
2021/05/03 09:40:07;;;;;;;2.83;2.28;;;18.10;60.10;;;;;;5014663;28;20034;-63
2021/05/03 09:42:56;;;;;;;2.65;2.10;;;18.10;60.30;;;;;;5020908;28;20025;-65
2021/05/03 09:45:29;;;;;;;3.22;2.30;;;18.00;59.90;;;;;;5017041;28;20036;-63
2021/05/03 09:47:57;;;;;;;2.08;1.98;;;17.90;60.20;;;;;;5018046;28;20029;-63
2021/05/03 09:50:25;;;;;;;3.45;2.50;;;17.80;60.90;;;;;;5015295;28;20041;-63
2021/05/03 09:53:08;;;;;;;3.10;2.38;;;17.80;61.00;;;;;;5017532;28;20052;-63
2021/05/03 09:55:47;;;;;;;2.20;2.10;;;17.80;60.60;;;;;;5018036;28;20026;-62
2021/05/03 09:58:14;;;;;;;3.55;2.40;;;17.70;60.90;;;;;;5021487;28;20038;-63
2021/05/03 10:00:58;;;;;;;3.50;2.28;;;17.70;61.10;;;;;;5018446;28;20056;-62
2021/05/03 10:03:41;;;;;;;2.45;2.10;;;17.70;61.10;;;;;;5019242;28;20034;-63
2021/05/03 10:06:09;;;;;;;2.47;2.28;;;17.60;61.20;;;;;;5020779;28;20064;-63
2021/05/03 10:08:36;;;;;;;5.57;2.58;;;17.60;61.70;;;;;;5020098;28;20388;-63
2021/05/03 10:11:07;;;;;;;2.50;2.30;;;17.60;61.10;;;;;;5018358;28;20029;-63
2021/05/03 10:13:34;;;;;;;2.60;2.40;;;17.60;61.20;;;;;;5020107;28;20377;-63
2021/05/03 10:16:00;;;;;;;2.78;2.50;;;17.60;61.50;;;;;;5017507;28;20511;-63
2021/05/03 10:18:28;;;;;;;3.85;2.83;;;17.60;61.40;;;;;;5020833;28;20085;-63
2021/05/03 10:20:55;;;;;;;3.53;2.40;;;17.60;61.90;;;;;;5019183;28;20036;-63
2021/05/03 10:23:23;;;;;;;3.38;2.50;;;17.60;62.10;;;;;;5015806;28;20128;-63
2021/05/03 10:25:54;;;;;;;2.55;2.35;;;17.70;61.90;;;;;;5022656;28;20065;-63
2021/05/03 10:28:19;;;;;;;2.40;2.20;;;17.80;62.00;;;;;;5018481;28;20033;-63
2021/05/03 10:30:49;;;;;;;2.95;2.50;;;17.80;62.10;;;;;;5008102;28;20124;-63
2021/05/03 10:33:16;;;;;;;2.60;2.40;;;17.90;61.80;;;;;;5018766;28;20029;-63
2021/05/03 10:35:47;;;;;;;3.33;2.50;;;17.90;61.50;;;;;;5017793;28;20029;-62
2021/05/03 10:38:27;;;;;;;2.80;2.60;;;17.90;61.50;;;;;;5018866;28;20033;-63
2021/05/03 10:40:55;;;;;;;2.45;2.30;;;17.80;61.30;;;;;;5020512;28;20041;-62
2021/05/03 10:43:26;;;;;;;2.47;2.28;;;17.80;60.80;;;;;;5018593;28;20449;-62
2021/05/03 10:48:45;;;;;;;2.95;2.72;;;17.50;61.20;;;;;;5018275;28;20049;-62
2021/05/03 10:51:33;;;;;;;2.88;2.65;;;17.40;61.30;;;;;;5018249;28;20018;-62
2021/05/03 10:54:41;;;;;;;2.92;2.72;;;17.30;61.70;;;;;;5019360;28;20049;-62
2021/05/03 10:57:15;;;;;;;3.65;2.45;;;17.10;61.70;;;;;;4951759;29;20446;-63
2021/05/03 11:00:00;;;;;;;3.15;2.72;;;16.90;62.10;;;;;;5011126;28;20042;-63
2021/05/03 11:02:44;;;;;;;3.50;3.17;;;16.80;62.20;;;;;;5018443;28;20037;-63
2021/05/03 11:05:21;;;;;;;3.63;3.22;;;16.60;62.60;;;;;;5019347;28;20033;-63
2021/05/03 11:08:05;;;;;;;6.15;2.53;;;16.50;63.20;;;;;;5016568;28;20026;-63
2021/05/03 11:10:53;;;;;;;2.67;2.47;;;16.40;63.70;;;;;;5016716;28;20026;-63
2021/05/03 11:13:40;;;;;;;2.50;2.30;;;16.30;63.80;;;;;;5025631;28;20034;-63
2021/05/03 11:16:28;;;;;;;2.85;2.65;;;16.20;64.00;;;;;;5017148;28;20459;-63
2021/05/03 11:19:31;;;;;;;2.60;2.40;;;16.00;63.70;;;;;;5021292;28;20092;-63
2021/05/03 11:21:57;;;;;;;2.95;2.67;;;16.00;63.70;;;;;;5020683;28;20037;-64
2021/05/03 11:24:50;;;;;;;2.80;2.60;;;15.80;63.80;;;;;;5017298;28;20037;-63
2021/05/03 11:27:18;;;;;;;3.28;2.97;;;15.70;64.00;;;;;;5016114;28;20034;-63
2021/05/03 11:32:11;;;;;;;3.78;2.85;;;15.50;65.00;;;;;;5016483;28;20156;-63
2021/05/03 11:34:53;;;;;;;3.10;2.80;;;15.40;65.40;;;;;;5017790;28;20052;-64
2021/05/03 11:37:29;;;;;;;3.30;2.95;;;15.40;65.90;;;;;;5016068;28;20029;-63
2021/05/03 11:40:08;;;;;;;4.20;2.88;;;15.30;66.70;;;;;;5021188;28;20033;-63
2021/05/03 11:45:05;;;;;;;2.85;2.58;;;15.40;67.40;;;;;;5020620;28;20040;-63
2021/05/03 11:47:38;;;;;;;3.20;2.90;;;15.40;67.80;;;;;;5016455;28;20029;-63
2021/05/03 11:50:05;;;;;;;4.55;3.50;;;15.50;68.30;;;;;;5017202;28;20045;-63
2021/05/03 11:52:32;;;;;;;4.55;3.28;;;15.50;68.70;;;;;;5015387;28;20041;-63
2021/05/03 11:55:13;;;;;;;5.82;3.42;;;15.60;69.30;;;;;;5016818;28;20034;-63
2021/05/03 11:57:43;;;;;;;4.70;3.28;;;15.70;68.80;;;;;;5015632;28;20026;-63
2021/05/03 12:00:12;;;;;;;5.22;3.40;;;15.80;68.70;;;;;;5018275;28;20065;-63
2021/05/03 12:02:38;;;;;;;3.30;3.00;;;15.90;68.30;;;;;;5016643;28;20113;-63
2021/05/03 12:05:15;;;;;;;3.72;3.28;;;16.00;68.10;;;;;;5020756;28;20112;-63
2021/05/03 12:07:43;;;;;;;3.22;2.95;;;16.00;68.10;;;;;;5015720;28;20029;-64
2021/05/03 12:10:17;;;;;;;3.00;2.70;;;16.10;67.90;;;;;;5017641;28;20037;-63
2021/05/03 12:12:49;;;;;;;2.88;2.67;;;16.20;68.10;;;;;;5015873;28;20052;-63
2021/05/03 12:15:21;;;;;;;3.30;3.00;;;16.20;68.00;;;;;;5019372;28;20026;-64
2021/05/03 12:17:48;;;;;;;3.20;2.90;;;16.30;67.90;;;;;;5015178;28;20470;-63
2021/05/03 12:20:20;;;;;;;3.85;3.33;;;16.30;67.90;;;;;;5017053;28;20116;-63
2021/05/03 12:22:58;;;;;;;3.35;3.05;;;16.40;68.20;;;;;;5016420;28;20038;-64
2021/05/03 12:25:27;;;;;;;4.35;3.28;;;16.50;67.30;;;;;;5018196;28;20026;-63
2021/05/03 12:27:53;;;;;;;4.40;3.30;;;16.50;66.70;;;;;;5016306;28;20482;-63
2021/05/03 12:30:19;;;;;;;3.38;2.72;;;16.50;66.90;;;;;;5016846;28;20123;-63
2021/05/03 12:32:45;;;;;;;3.38;3.08;;;16.50;66.70;;;;;;5020730;28;20096;-63
2021/05/03 12:35:17;;;;;;;7.32;4.50;;;16.50;66.50;;;;;;5017225;28;20120;-63
2021/05/03 12:37:43;;;;;;;3.50;2.95;;;16.50;66.60;;;;;;5018195;28;20385;-63
2021/05/03 12:40:14;;;;;;;2.80;2.60;;;16.50;66.40;;;;;;5014411;28;20041;-63
2021/05/03 12:42:48;;;;;;;3.40;3.08;;;16.50;66.10;;;;;;5012466;28;20516;-63
2021/05/03 12:53:44;;;;;;;3.65;2.53;;;16.70;65.10;;;;;;5015142;28;20058;-63
2021/05/03 12:58:45;;;;;;;2.50;2.30;;;16.80;64.60;;;;;;5014654;28;20128;-63
2021/05/03 13:01:53;;;;;;;2.70;2.50;;;16.90;63.80;;;;;;5014783;28;20485;-63
2021/05/03 13:04:54;;;;;;;2.17;2.08;;;16.90;63.00;;;;;;5016041;28;20121;-63
2021/05/03 13:29:47;;;;;;;1.77;1.67;;;16.70;58.00;;;;;;5014250;28;20127;-63
2021/05/03 13:32:19;;;;;;;1.70;1.60;;;16.60;57.50;;;;;;5014066;28;20160;-63
2021/05/03 13:34:45;;;;;;;1.98;1.73;;;16.60;57.90;;;;;;5015141;28;20033;-63
2021/05/03 13:37:11;;;;;;;2.42;2.00;;;16.70;57.80;;;;;;5016330;28;20711;-64
2021/05/03 13:39:38;;;;;;;2.05;1.80;;;16.70;57.60;;;;;;5013814;28;20120;-64
2021/05/03 13:42:07;;;;;;;2.17;1.83;;;16.80;57.50;;;;;;5013250;28;20535;-63
2021/05/03 13:44:33;;;;;;;2.38;2.17;;;16.80;57.40;;;;;;5013802;28;20022;-63
2021/05/03 13:46:58;;;;;;;2.25;2.10;;;16.80;57.40;;;;;;5015153;28;20037;-63
2021/05/03 13:49:24;;;;;;;3.15;1.88;;;16.90;57.00;;;;;;4996054;28;20033;-64
2021/05/03 13:51:49;;;;;;;1.83;1.73;;;16.90;57.00;;;;;;5022638;28;20112;-63